Time;durP1;ratioP1;P1;durP2;ratioP2;P2;SDS_P1;SDS_P2;PMS_P1;PMS_P2;Temp;Humidity;BMP_temperature;BMP_pressure;BME280_temperature;BME280_humidity;BME280_pressure;Samples;Min_cycle;Max_cycle;Signal;HPM_P1;HPM_P2
2024/02/13 00:00:48;;;;;;;1999.90;999.90;;;8.90;99.90;;;;;;5092697;28;20097;-82
2024/02/13 00:03:14;;;;;;;1999.90;999.90;;;8.90;99.90;;;;;;5096300;28;20023;-79
2024/02/13 00:05:40;;;;;;;1999.90;999.90;;;9.00;99.90;;;;;;5095668;28;20135;-77
2024/02/13 00:08:06;;;;;;;1999.90;999.90;;;9.00;99.90;;;;;;5096158;28;20490;-78
2024/02/13 00:10:33;;;;;;;1999.90;999.90;;;9.10;99.90;;;;;;5096035;28;20402;-78
2024/02/13 00:12:58;;;;;;;1999.90;999.90;;;9.10;99.90;;;;;;5115920;28;20026;-77
2024/02/13 00:15:25;;;;;;;1999.90;999.90;;;9.10;99.90;;;;;;5096197;28;20118;-78
2024/02/13 00:17:51;;;;;;;1999.90;999.90;;;9.00;99.90;;;;;;5114115;28;20012;-82
2024/02/13 00:20:18;;;;;;;1999.90;999.90;;;9.10;99.90;;;;;;5098527;28;20027;-77
2024/02/13 00:22:45;;;;;;;1999.90;999.90;;;9.10;99.90;;;;;;5095879;28;20028;-82
2024/02/13 00:25:12;;;;;;;1999.90;999.90;;;9.10;99.90;;;;;;5096049;28;20027;-77
2024/02/13 00:27:38;;;;;;;1999.90;999.90;;;9.00;99.90;;;;;;5114251;28;20157;-82
2024/02/13 00:30:09;;;;;;;1999.90;999.90;;;9.00;99.90;;;;;;5095404;28;20031;-78
2024/02/13 00:32:38;;;;;;;1999.90;999.90;;;9.00;99.90;;;;;;5092052;28;20027;-77
2024/02/13 00:35:08;;;;;;;1999.90;999.90;;;9.00;99.90;;;;;;5077039;28;20166;-82
2024/02/13 00:37:36;;;;;;;1999.90;999.90;;;9.00;99.90;;;;;;5092349;28;20115;-81
2024/02/13 00:40:05;;;;;;;1999.90;999.90;;;9.00;99.90;;;;;;5097536;28;20008;-82
2024/02/13 00:42:32;;;;;;;1999.90;999.90;;;9.00;99.90;;;;;;5093014;28;20814;-77
2024/02/13 00:45:00;;;;;;;1999.90;999.90;;;9.00;99.90;;;;;;5092138;28;20398;-78
2024/02/13 00:47:28;;;;;;;1999.90;999.90;;;8.90;99.90;;;;;;5075280;28;20039;-77
2024/02/13 00:49:54;;;;;;;1999.90;999.90;;;8.90;99.90;;;;;;5075116;28;20547;-78
2024/02/13 00:52:21;;;;;;;1999.90;999.90;;;8.90;99.90;;;;;;5075281;28;20409;-77
2024/02/13 00:54:46;;;;;;;1999.90;999.90;;;8.90;99.90;;;;;;5092221;28;20023;-78
2024/02/13 00:57:15;;;;;;;1999.90;999.90;;;8.90;99.90;;;;;;5092148;28;20081;-77
2024/02/13 00:59:43;;;;;;;1999.90;999.90;;;8.90;99.90;;;;;;5091928;28;20027;-77
2024/02/13 01:02:08;;;;;;;1999.90;999.90;;;8.90;99.90;;;;;;5102914;28;20037;-78
2024/02/13 01:04:34;;;;;;;1999.90;999.90;;;8.90;99.90;;;;;;5095162;28;20024;-77
2024/02/13 01:07:01;;;;;;;1999.90;999.90;;;8.90;99.90;;;;;;5095176;28;20085;-77
2024/02/13 01:09:26;;;;;;;1999.90;999.90;;;8.80;99.90;;;;;;5095379;28;20024;-78
2024/02/13 01:11:52;;;;;;;1999.90;999.90;;;8.80;99.90;;;;;;5095698;28;20049;-82
2024/02/13 01:14:18;;;;;;;1999.90;999.90;;;8.80;99.90;;;;;;5095203;28;20024;-81
2024/02/13 01:16:44;;;;;;;1999.90;999.90;;;8.80;99.90;;;;;;5095071;28;20502;-78
2024/02/13 01:19:10;;;;;;;1999.90;999.90;;;8.80;99.90;;;;;;5113519;28;20019;-82
2024/02/13 01:21:36;;;;;;;1999.90;999.90;;;8.90;99.90;;;;;;5095255;28;20028;-77
2024/02/13 01:24:02;;;;;;;1999.90;999.90;;;8.90;99.90;;;;;;5115058;28;20023;-82
2024/02/13 01:26:29;;;;;;;1999.90;999.90;;;8.90;99.90;;;;;;5095155;28;20026;-77
2024/02/13 01:28:57;;;;;;;1999.90;999.90;;;8.90;99.90;;;;;;5132092;28;20016;-77
2024/02/13 01:31:23;;;;;;;1999.90;999.90;;;8.80;99.90;;;;;;5116075;28;20039;-77
2024/02/13 01:33:48;;;;;;;1999.90;999.90;;;8.90;99.90;;;;;;5092692;28;20028;-77
2024/02/13 01:36:17;;;;;;;1999.90;999.90;;;8.80;99.90;;;;;;5091734;28;20024;-77
2024/02/13 01:38:43;;;;;;;1999.90;999.90;;;8.90;99.90;;;;;;5091547;28;20020;-78
2024/02/13 01:41:09;;;;;;;1999.90;999.90;;;8.90;99.90;;;;;;5091669;28;20571;-77
2024/02/13 01:43:35;;;;;;;1999.90;999.90;;;8.90;99.90;;;;;;5095975;28;20049;-77
2024/02/13 01:46:02;;;;;;;1999.90;999.90;;;9.00;99.90;;;;;;5107649;28;20054;-77
2024/02/13 01:48:29;;;;;;;1999.90;999.90;;;9.00;99.90;;;;;;5095477;28;20501;-77
2024/02/13 01:51:00;;;;;;;1999.90;999.90;;;9.00;99.90;;;;;;5095175;28;20028;-81
2024/02/13 01:53:28;;;;;;;1999.90;999.90;;;9.00;99.90;;;;;;5079194;28;20027;-77
2024/02/13 01:55:56;;;;;;;1999.90;999.90;;;8.90;99.90;;;;;;5095449;28;20024;-77
2024/02/13 01:58:22;;;;;;;1999.90;999.90;;;9.00;99.90;;;;;;5078467;28;20024;-82
2024/02/13 02:00:58;;;;;;;1999.90;999.90;;;9.10;99.90;;;;;;5095371;28;20035;-82
2024/02/13 02:03:26;;;;;;;1999.90;999.90;;;9.10;99.90;;;;;;5087961;28;20039;-78
2024/02/13 02:05:51;;;;;;;1999.90;999.90;;;9.10;99.90;;;;;;5097741;28;20562;-77
2024/02/13 02:08:18;;;;;;;1999.90;999.90;;;9.10;99.90;;;;;;5096326;28;20146;-82
2024/02/13 02:10:44;;;;;;;1999.90;999.90;;;9.00;99.90;;;;;;5077932;28;20442;-77
2024/02/13 02:13:14;;;;;;;1999.90;999.90;;;8.90;99.90;;;;;;5096448;28;20506;-77
2024/02/13 02:15:41;;;;;;;1999.90;999.90;;;8.80;99.90;;;;;;5078203;28;20020;-77
2024/02/13 02:18:09;;;;;;;1999.90;999.90;;;8.70;99.90;;;;;;5077709;28;20031;-77
2024/02/13 02:20:36;;;;;;;1999.90;999.90;;;8.70;99.90;;;;;;5096276;28;20612;-81
2024/02/13 02:23:02;;;;;;;1999.90;999.90;;;8.60;99.90;;;;;;5078004;28;20024;-81
2024/02/13 02:25:29;;;;;;;1999.90;999.90;;;8.60;99.90;;;;;;5096099;28;20103;-77
2024/02/13 02:27:55;;;;;;;1999.90;999.90;;;8.60;99.90;;;;;;5100421;27;20019;-77
2024/02/13 02:30:20;;;;;;;1999.90;999.90;;;8.50;99.90;;;;;;5118324;27;20100;-77
2024/02/13 02:32:47;;;;;;;1999.90;999.90;;;8.50;99.90;;;;;;5130149;27;20023;-77
2024/02/13 02:35:13;;;;;;;1999.90;999.90;;;8.50;99.90;;;;;;5097817;28;20087;-78
2024/02/13 02:37:40;;;;;;;1999.90;999.90;;;8.50;99.90;;;;;;5097794;28;20473;-77
2024/02/13 02:40:06;;;;;;;1999.90;999.90;;;8.60;99.90;;;;;;5098004;28;20039;-82
2024/02/13 02:42:32;;;;;;;1999.90;999.90;;;8.50;99.90;;;;;;5098445;28;20027;-77
2024/02/13 02:44:59;;;;;;;1999.90;999.90;;;8.50;99.90;;;;;;5098218;28;20051;-77
2024/02/13 02:47:25;;;;;;;1999.90;999.90;;;8.50;99.90;;;;;;5097709;28;20024;-82
2024/02/13 02:49:50;;;;;;;1999.90;999.90;;;8.60;99.90;;;;;;5099438;28;20409;-77
2024/02/13 02:52:17;;;;;;;1999.90;999.90;;;8.70;99.90;;;;;;5114651;28;20020;-81
2024/02/13 02:54:43;;;;;;;1999.90;999.90;;;8.90;99.90;;;;;;5115604;28;20501;-77
2024/02/13 02:57:11;;;;;;;1999.90;999.90;;;9.10;99.90;;;;;;5115887;28;20027;-81
2024/02/13 02:59:36;;;;;;;1999.90;999.90;;;9.10;99.90;;;;;;5115951;28;20024;-76
2024/02/13 03:02:02;;;;;;;1999.90;999.90;;;9.10;99.90;;;;;;5097281;28;20030;-77
2024/02/13 03:04:28;;;;;;;1999.90;999.90;;;9.10;99.90;;;;;;5096915;28;20034;-82
2024/02/13 03:06:54;;;;;;;1999.90;999.90;;;9.10;99.90;;;;;;5097432;28;20382;-77
2024/02/13 03:09:20;;;;;;;1999.90;999.90;;;9.20;99.90;;;;;;5098116;28;20023;-77
2024/02/13 03:11:47;;;;;;;1999.90;999.90;;;9.20;99.90;;;;;;5097310;28;20034;-77
2024/02/13 03:14:13;;;;;;;1999.90;999.90;;;9.10;99.90;;;;;;5097047;28;20026;-81
2024/02/13 03:16:40;;;;;;;1999.90;999.90;;;9.10;99.90;;;;;;5115630;28;20024;-78
2024/02/13 03:19:06;;;;;;;1999.90;999.90;;;9.20;99.90;;;;;;5097276;28;20494;-77
2024/02/13 03:21:32;;;;;;;1999.90;999.90;;;9.10;99.90;;;;;;5097068;28;20027;-81
2024/02/13 03:23:58;;;;;;;1999.90;999.90;;;9.20;99.90;;;;;;5098482;28;20023;-77
2024/02/13 03:26:27;;;;;;;1999.90;999.90;;;9.10;99.90;;;;;;5097157;28;20434;-81
2024/02/13 03:28:52;;;;;;;1999.90;999.90;;;9.00;99.90;;;;;;5115308;28;20020;-77
2024/02/13 03:31:18;;;;;;;1999.90;999.90;;;9.00;99.90;;;;;;5116626;28;20397;-77
2024/02/13 03:33:44;;;;;;;1999.90;999.90;;;9.10;99.90;;;;;;5096618;28;20051;-80
2024/02/13 03:36:16;;;;;;;1999.90;999.90;;;9.10;99.90;;;;;;5096630;28;20081;-77
2024/02/13 03:38:46;;;;;;;1999.90;999.90;;;9.10;99.90;;;;;;5096755;28;20553;-77
2024/02/13 03:41:11;;;;;;;1999.90;999.90;;;9.00;99.90;;;;;;5096847;28;20061;-77
2024/02/13 03:43:41;;;;;;;1999.90;999.90;;;9.10;99.90;;;;;;5096778;28;20027;-77
2024/02/13 03:46:06;;;;;;;1999.90;999.90;;;9.10;99.90;;;;;;5114892;28;20459;-81
2024/02/13 03:48:32;;;;;;;1999.90;999.90;;;9.10;99.90;;;;;;5096793;28;20027;-81
2024/02/13 03:50:57;;;;;;;1999.90;999.90;;;9.10;99.90;;;;;;5098090;28;20404;-77
2024/02/13 03:53:23;;;;;;;1999.90;999.90;;;9.10;99.90;;;;;;5097061;28;20024;-77
2024/02/13 03:55:49;;;;;;;1999.90;999.90;;;9.10;99.90;;;;;;5097051;28;20043;-77
2024/02/13 03:58:15;;;;;;;1999.90;999.90;;;9.10;99.90;;;;;;5096139;28;20027;-82
2024/02/13 04:00:41;;;;;;;1999.90;999.90;;;9.20;99.90;;;;;;5114249;28;20027;-77
2024/02/13 04:03:07;;;;;;;1999.90;999.90;;;9.10;99.90;;;;;;5092827;28;20483;-77
2024/02/13 04:05:37;;;;;;;1999.90;999.90;;;9.10;99.90;;;;;;5115570;28;20043;-77
2024/02/13 04:08:06;;;;;;;1999.90;999.90;;;9.10;99.90;;;;;;5096288;28;20028;-77
2024/02/13 04:10:33;;;;;;;1999.90;999.90;;;9.10;99.90;;;;;;5095782;28;20024;-81
2024/02/13 04:12:59;;;;;;;1999.90;999.90;;;9.10;99.90;;;;;;5116493;28;20387;-81
2024/02/13 04:15:28;;;;;;;1999.90;999.90;;;9.20;99.90;;;;;;5096172;28;20124;-78
2024/02/13 04:17:53;;;;;;;1999.90;999.90;;;9.20;99.90;;;;;;5114578;28;20525;-77
2024/02/13 04:20:19;;;;;;;1999.90;999.90;;;9.20;99.90;;;;;;5096251;28;20051;-77
2024/02/13 04:22:45;;;;;;;1999.90;999.90;;;9.20;99.90;;;;;;5095996;28;20031;-77
2024/02/13 04:25:10;;;;;;;1999.90;999.90;;;9.10;99.90;;;;;;5097634;28;20458;-77
2024/02/13 04:27:37;;;;;;;1999.90;999.90;;;9.20;99.90;;;;;;5095738;28;20031;-81
2024/02/13 04:30:10;;;;;;;1999.90;999.90;;;9.20;99.90;;;;;;5095878;28;20028;-81
2024/02/13 04:32:37;;;;;;;1999.90;999.90;;;9.20;99.90;;;;;;5113753;28;20189;-77
2024/02/13 04:35:05;;;;;;;1999.90;999.90;;;9.20;99.90;;;;;;5112720;28;20077;-78
2024/02/13 04:37:31;;;;;;;1999.90;999.90;;;9.10;99.90;;;;;;5095728;28;20050;-77
2024/02/13 04:39:57;;;;;;;1999.90;999.90;;;9.10;99.90;;;;;;5095536;28;20490;-77
2024/02/13 04:42:33;;;;;;;1999.90;999.90;;;9.20;99.90;;;;;;5114145;28;20102;-77
2024/02/13 04:44:59;;;;;;;1999.90;999.90;;;9.30;99.90;;;;;;5116725;28;20522;-81
2024/02/13 04:47:29;;;;;;;1999.90;999.90;;;9.20;99.90;;;;;;5098597;28;20080;-81
2024/02/13 04:50:00;;;;;;;1999.90;999.90;;;9.20;99.90;;;;;;5095445;28;20080;-81
2024/02/13 04:52:26;;;;;;;1999.90;999.90;;;9.30;99.90;;;;;;5095440;28;20379;-78
2024/02/13 04:54:53;;;;;;;1999.90;999.90;;;9.30;99.90;;;;;;5095393;28;20027;-77
2024/02/13 04:57:19;;;;;;;1999.90;999.90;;;9.40;99.90;;;;;;5095547;28;20028;-77
2024/02/13 04:59:48;;;;;;;1999.90;999.90;;;9.50;99.90;;;;;;5095391;28;20095;-81
2024/02/13 05:02:18;;;;;;;1999.90;999.90;;;9.60;99.90;;;;;;5095489;28;20027;-78
2024/02/13 05:07:31;;;;;;;1999.90;999.90;;;9.60;99.90;;;;;;5116057;28;20031;-81
2024/02/13 05:09:58;;;;;;;1999.90;999.90;;;9.60;99.90;;;;;;5095146;28;20093;-81
2024/02/13 05:12:26;;;;;;;1999.90;999.90;;;9.60;99.90;;;;;;5113379;28;20044;-77
2024/02/13 05:14:57;;;;;;;1999.90;999.90;;;9.60;99.90;;;;;;5113777;28;20102;-77
2024/02/13 05:17:30;;;;;;;1999.90;999.90;;;9.60;99.90;;;;;;5096618;28;20115;-77
2024/02/13 05:19:55;;;;;;;;;;;9.60;99.90;;;;;;5101355;28;20184;-77
2024/02/13 05:22:21;;;;;;;1999.90;999.90;;;9.50;99.90;;;;;;5099472;28;19904;-77
2024/02/13 05:24:48;;;;;;;1999.90;999.90;;;9.50;99.90;;;;;;5117404;28;20031;-77
2024/02/13 05:27:14;;;;;;;1999.90;999.90;;;9.50;99.90;;;;;;5114284;28;20020;-77
2024/02/13 05:29:41;;;;;;;1999.90;999.90;;;9.60;99.90;;;;;;5077972;28;20031;-77
2024/02/13 05:32:07;;;;;;;1999.90;999.90;;;9.60;99.90;;;;;;5097728;28;20479;-81
2024/02/13 05:34:33;;;;;;;1999.90;999.90;;;9.60;99.90;;;;;;5117530;28;20019;-77
2024/02/13 05:36:59;;;;;;;1999.90;999.90;;;9.60;99.90;;;;;;5117249;28;20023;-82
2024/02/13 05:39:31;;;;;;;1999.90;999.90;;;9.50;99.90;;;;;;5099064;28;20024;-81
2024/02/13 05:41:57;;;;;;;1999.90;999.90;;;9.50;99.90;;;;;;5101004;28;20035;-82
2024/02/13 05:44:24;;;;;;;1999.90;999.90;;;9.50;99.90;;;;;;5117501;28;20020;-77
2024/02/13 05:46:50;;;;;;;1999.90;999.90;;;9.50;99.90;;;;;;5099910;28;20023;-77
2024/02/13 05:49:16;;;;;;;1999.90;999.90;;;9.50;99.90;;;;;;5101706;28;20024;-77
2024/02/13 05:51:43;;;;;;;1999.90;999.90;;;9.60;99.90;;;;;;5116869;28;20501;-77
2024/02/13 05:54:11;;;;;;;1999.90;999.90;;;9.70;99.90;;;;;;5116469;28;20027;-77
2024/02/13 05:56:37;;;;;;;1999.90;999.90;;;9.70;99.90;;;;;;5095083;28;20024;-77
2024/02/13 05:59:03;;;;;;;1999.90;999.90;;;9.70;99.90;;;;;;5096380;28;20390;-82
2024/02/13 06:01:32;;;;;;;1999.90;999.90;;;9.70;99.90;;;;;;5098800;28;20057;-82
2024/02/13 06:04:05;;;;;;;1999.90;999.90;;;9.70;99.90;;;;;;5100500;28;20059;-82
2024/02/13 06:06:33;;;;;;;1999.90;999.90;;;9.70;99.90;;;;;;5098519;28;20047;-77
2024/02/13 06:08:59;;;;;;;1999.90;999.90;;;9.70;99.90;;;;;;5083854;28;20015;-83
2024/02/13 06:11:25;;;;;;;1999.90;999.90;;;9.70;99.90;;;;;;5077287;28;20483;-81
2024/02/13 06:13:51;;;;;;;1999.90;999.90;;;9.70;99.90;;;;;;5077886;28;20111;-82
2024/02/13 06:16:17;;;;;;;1999.90;999.90;;;9.60;99.90;;;;;;5078391;28;20028;-77
2024/02/13 06:18:47;;;;;;;1999.90;999.90;;;9.50;99.90;;;;;;5078521;28;20094;-77
2024/02/13 06:21:18;;;;;;;1999.90;999.90;;;9.50;99.90;;;;;;5077881;28;20518;-82
2024/02/13 06:23:47;;;;;;;1999.90;999.90;;;9.40;99.90;;;;;;5097586;28;20031;-77
2024/02/13 06:26:13;;;;;;;1999.90;999.90;;;9.40;99.90;;;;;;5096020;28;20032;-77
2024/02/13 06:28:39;;;;;;;1999.90;999.90;;;9.40;99.90;;;;;;5081936;28;20028;-77
2024/02/13 06:31:06;;;;;;;1999.90;999.90;;;9.60;99.90;;;;;;5108148;28;20073;-77
2024/02/13 06:33:31;;;;;;;1999.90;999.90;;;9.60;99.90;;;;;;5076833;28;20012;-77
2024/02/13 06:35:57;;;;;;;1999.90;999.90;;;9.70;99.90;;;;;;5076565;28;20050;-77
2024/02/13 06:38:26;;;;;;;1999.90;999.90;;;9.70;99.90;;;;;;5077207;28;20095;-78
2024/02/13 06:40:52;;;;;;;1999.90;999.90;;;9.70;99.90;;;;;;5091924;28;20102;-77
2024/02/13 06:43:18;;;;;;;1999.90;999.90;;;9.70;99.90;;;;;;5081716;28;20056;-77
2024/02/13 06:45:44;;;;;;;1999.90;999.90;;;9.70;99.90;;;;;;5076714;28;20076;-77
2024/02/13 06:48:10;;;;;;;1999.90;999.90;;;9.70;99.90;;;;;;5076832;28;20458;-82
2024/02/13 06:50:35;;;;;;;1999.90;999.90;;;9.80;99.90;;;;;;5076977;28;20418;-77
2024/02/13 06:53:01;;;;;;;1999.90;999.90;;;9.90;99.90;;;;;;5095118;28;20028;-82
2024/02/13 06:55:26;;;;;;;1999.90;999.90;;;9.90;99.90;;;;;;5077077;28;20028;-77
2024/02/13 06:57:53;;;;;;;1999.90;999.90;;;10.00;99.90;;;;;;5094535;28;20386;-78
2024/02/13 07:00:19;;;;;;;1999.90;999.90;;;10.00;99.90;;;;;;5072339;28;20169;-78
2024/02/13 07:02:46;;;;;;;1999.90;999.90;;;10.00;99.90;;;;;;5092332;28;20023;-83
2024/02/13 07:05:11;;;;;;;1999.90;999.90;;;10.00;99.90;;;;;;5081338;28;20135;-82
2024/02/13 07:07:37;;;;;;;1999.90;999.90;;;10.00;99.90;;;;;;5078256;28;20071;-81
2024/02/13 07:10:04;;;;;;;1999.90;999.90;;;10.10;99.90;;;;;;5068313;28;20376;-84
2024/02/13 07:12:30;;;;;;;1999.90;999.90;;;10.10;99.90;;;;;;5078021;28;20027;-81
2024/02/13 07:14:56;;;;;;;1999.90;999.90;;;10.20;99.90;;;;;;5076376;28;20028;-81
2024/02/13 07:17:22;;;;;;;1999.90;999.90;;;10.30;99.90;;;;;;5094698;28;20067;-81
2024/02/13 07:19:48;;;;;;;1999.90;999.90;;;10.40;99.90;;;;;;5082804;28;20035;-81
2024/02/13 07:22:14;;;;;;;1999.90;999.90;;;10.40;99.90;;;;;;5078097;28;20028;-82
2024/02/13 07:24:40;;;;;;;1999.90;999.90;;;10.50;99.90;;;;;;5096415;28;20491;-82
2024/02/13 07:27:07;;;;;;;1999.90;999.90;;;10.50;99.90;;;;;;5076074;28;20067;-81
2024/02/13 07:29:33;;;;;;;1999.90;999.90;;;10.50;99.90;;;;;;5075182;28;20039;-79
2024/02/13 07:32:03;;;;;;;1999.90;999.90;;;10.50;99.90;;;;;;5091258;28;20055;-79
2024/02/13 07:34:29;;;;;;;1999.90;999.90;;;10.60;99.90;;;;;;5073280;28;20039;-79
2024/02/13 07:36:54;;;;;;;1999.90;999.90;;;10.70;99.90;;;;;;5074236;28;20028;-78
2024/02/13 07:39:20;;;;;;;1999.90;999.90;;;10.80;99.90;;;;;;5093408;28;20103;-78
2024/02/13 07:41:45;;;;;;;1999.90;999.90;;;10.90;99.90;;;;;;5061100;28;20173;-77
2024/02/13 07:44:11;;;;;;;1999.90;999.90;;;10.90;99.90;;;;;;5068000;28;20028;-79
2024/02/13 07:46:38;;;;;;;1999.90;999.90;;;10.90;99.90;;;;;;5057060;28;20502;-78
2024/02/13 07:49:04;;;;;;;1999.90;999.90;;;11.00;99.90;;;;;;5065157;28;20023;-76
2024/02/13 07:51:30;;;;;;;1999.90;999.90;;;11.00;99.90;;;;;;5049544;28;20035;-77
2024/02/13 07:53:57;;;;;;;1999.90;999.90;;;11.10;99.90;;;;;;5036254;28;20075;-77
2024/02/13 07:56:28;;;;;;;1999.90;999.90;;;11.20;99.90;;;;;;5056462;28;20717;-79
2024/02/13 07:58:57;;;;;;;1999.90;999.90;;;11.10;99.90;;;;;;5050782;28;20025;-77
2024/02/13 08:01:25;;;;;;;1999.90;999.90;;;11.10;99.90;;;;;;5055344;28;20036;-76
2024/02/13 08:03:51;;;;;;;1999.90;999.90;;;11.10;99.90;;;;;;5057774;28;20175;-76
2024/02/13 08:06:17;;;;;;;1999.90;999.90;;;11.10;99.90;;;;;;5061854;28;20347;-78
2024/02/13 08:08:42;;;;;;;1999.90;999.90;;;11.20;99.90;;;;;;5085616;28;20032;-78
2024/02/13 08:11:10;;;;;;;1999.90;999.90;;;11.30;99.90;;;;;;5056465;28;20138;-76
2024/02/13 08:13:37;;;;;;;1999.90;999.90;;;11.40;99.90;;;;;;5063175;28;20030;-78
2024/02/13 08:16:03;;;;;;;1999.90;999.90;;;11.30;99.90;;;;;;5073850;27;20035;-76
2024/02/13 08:18:29;;;;;;;1999.90;999.90;;;11.40;99.90;;;;;;5070973;28;20794;-76
2024/02/13 08:20:55;;;;;;;1999.90;999.90;;;11.40;99.90;;;;;;5075647;28;20030;-77
2024/02/13 08:23:21;;;;;;;1999.90;999.90;;;11.50;99.90;;;;;;5076312;28;20036;-76
2024/02/13 08:25:47;;;;;;;1999.90;999.90;;;11.60;99.90;;;;;;5081640;28;20045;-76
2024/02/13 08:28:13;;;;;;;1999.90;999.90;;;11.60;99.90;;;;;;5072768;28;20031;-76
2024/02/13 08:30:39;;;;;;;1999.90;999.90;;;11.60;99.90;;;;;;5069082;28;20036;-76
2024/02/13 08:33:05;;;;;;;1999.90;999.90;;;11.40;99.90;;;;;;5053351;28;20028;-76
2024/02/13 08:35:30;;;;;;;1999.90;999.90;;;11.50;99.90;;;;;;5093723;27;20027;-75
2024/02/13 08:37:56;;;;;;;1999.90;999.90;;;11.40;99.90;;;;;;5076687;28;20096;-76
2024/02/13 08:40:22;;;;;;;1999.90;999.90;;;11.30;99.90;;;;;;5075913;28;20067;-76
2024/02/13 08:42:48;;;;;;;1999.90;999.90;;;11.40;99.90;;;;;;5086203;28;20733;-75
2024/02/13 08:45:14;;;;;;;1999.90;999.90;;;11.20;99.90;;;;;;5081481;28;20032;-76
2024/02/13 08:47:40;;;;;;;1999.90;999.90;;;11.20;99.90;;;;;;5078651;28;20092;-76
2024/02/13 08:50:07;;;;;;;1999.90;999.90;;;11.20;99.90;;;;;;5067016;28;20040;-79
2024/02/13 08:52:33;;;;;;;1999.90;999.90;;;11.30;99.90;;;;;;5090621;28;20024;-78
2024/02/13 08:54:58;;;;;;;1999.90;999.90;;;11.30;99.90;;;;;;5067662;28;20108;-78
2024/02/13 08:57:24;;;;;;;1999.90;999.90;;;11.00;99.90;;;;;;5081962;28;20032;-79
2024/02/13 08:59:52;;;;;;;1999.90;999.90;;;10.70;99.90;;;;;;5067522;28;20024;-79
2024/02/13 09:02:18;;;;;;;1999.90;999.90;;;10.50;99.90;;;;;;5075561;28;20135;-78
2024/02/13 09:04:48;;;;;;;1999.90;999.90;;;9.90;99.90;;;;;;5086990;28;20047;-79
2024/02/13 09:07:14;;;;;;;1999.90;999.90;;;9.70;99.90;;;;;;5076245;28;20020;-79
2024/02/13 09:09:39;;;;;;;1999.90;999.90;;;9.50;99.90;;;;;;5085067;28;20038;-78
2024/02/13 09:12:06;;;;;;;1999.90;999.90;;;9.40;99.90;;;;;;5083489;28;20816;-78
2024/02/13 09:14:34;;;;;;;1999.90;999.90;;;9.40;99.90;;;;;;5084916;28;20059;-79
2024/02/13 09:17:00;;;;;;;1999.90;999.90;;;9.40;99.90;;;;;;5066060;28;20027;-78
2024/02/13 09:19:26;;;;;;;1999.90;999.90;;;9.40;99.90;;;;;;5083756;28;20036;-77
2024/02/13 09:21:52;;;;;;;1999.90;999.90;;;9.30;99.90;;;;;;5063842;28;20561;-79
2024/02/13 09:24:18;;;;;;;1999.90;999.90;;;9.30;99.90;;;;;;5088757;28;20092;-79
2024/02/13 09:26:44;;;;;;;1999.90;999.90;;;9.30;99.90;;;;;;5080987;28;20332;-79
2024/02/13 09:29:10;;;;;;;1999.90;999.90;;;9.10;99.90;;;;;;5079424;28;20024;-78
2024/02/13 09:31:35;;;;;;;1999.90;999.90;;;9.20;99.90;;;;;;5089720;28;20031;-79
2024/02/13 09:34:01;;;;;;;1999.90;999.90;;;9.20;99.90;;;;;;5089914;28;20062;-76
2024/02/13 09:36:27;;;;;;;1999.90;999.90;;;9.10;99.90;;;;;;5082524;28;20878;-79
2024/02/13 09:38:53;;;;;;;1999.90;999.90;;;9.10;99.90;;;;;;5078051;28;20731;-79
2024/02/13 09:41:19;;;;;;;1999.90;999.90;;;9.10;99.90;;;;;;5098368;28;20020;-80
2024/02/13 09:43:48;;;;;;;1999.90;999.90;;;9.10;99.90;;;;;;5099017;28;20031;-80
2024/02/13 09:46:17;;;;;;;1999.90;999.90;;;9.10;99.90;;;;;;5097987;28;20023;-80
2024/02/13 09:48:46;;;;;;;1999.90;999.90;;;9.10;99.90;;;;;;5084398;28;20038;-79
2024/02/13 09:51:18;;;;;;;1999.90;999.90;;;9.10;99.90;;;;;;5108008;28;20025;-80
2024/02/13 09:53:45;;;;;;;1999.90;999.90;;;9.10;99.90;;;;;;5082782;28;20032;-80
2024/02/13 09:56:14;;;;;;;1999.90;999.90;;;9.20;99.90;;;;;;5085959;28;20031;-80
2024/02/13 09:58:41;;;;;;;1999.90;999.90;;;9.20;99.90;;;;;;5086303;28;20164;-80
2024/02/13 10:01:07;;;;;;;1999.90;999.90;;;9.30;99.90;;;;;;5104962;28;20054;-80
2024/02/13 10:03:36;;;;;;;1999.90;999.90;;;9.30;99.90;;;;;;5087731;28;20058;-79
2024/02/13 10:06:02;;;;;;;1999.90;999.90;;;9.30;99.90;;;;;;5095345;28;20509;-79
2024/02/13 10:08:30;;;;;;;1999.90;999.90;;;9.30;99.90;;;;;;5106745;28;20529;-80
2024/02/13 10:11:00;;;;;;;1999.90;999.90;;;9.30;99.90;;;;;;5106276;28;20030;-80
2024/02/13 10:13:40;;;;;;;1999.90;999.90;;;9.30;99.90;;;;;;5086273;28;20089;-79
2024/02/13 10:16:18;;;;;;;1999.90;999.90;;;9.30;99.90;;;;;;5118869;27;20027;-79
2024/02/13 10:18:47;;;;;;;1999.90;999.90;;;9.30;99.90;;;;;;5098739;28;20016;-80
2024/02/13 10:21:13;;;;;;;1999.90;999.90;;;9.20;99.90;;;;;;5091309;28;20146;-80
2024/02/13 10:23:42;;;;;;;1999.90;999.90;;;9.20;99.90;;;;;;5100593;27;20032;-80
2024/02/13 10:26:10;;;;;;;1999.90;999.90;;;9.20;99.90;;;;;;5108326;27;20031;-79
2024/02/13 10:28:44;;;;;;;1999.90;999.90;;;9.20;99.90;;;;;;5102667;28;20488;-79
2024/02/13 10:31:09;;;;;;;1999.90;999.90;;;9.20;99.90;;;;;;5110550;28;20053;-78
2024/02/13 10:33:42;;;;;;;1999.90;999.90;;;9.10;99.90;;;;;;5111487;28;20490;-78
2024/02/13 10:36:08;;;;;;;1999.90;999.90;;;9.10;99.90;;;;;;5100802;28;20028;-79
2024/02/13 10:38:36;;;;;;;1999.90;999.90;;;9.10;99.90;;;;;;5119477;27;20030;-79
2024/02/13 10:41:08;;;;;;;1999.90;999.90;;;9.10;99.90;;;;;;5114959;27;20028;-79
2024/02/13 10:43:34;;;;;;;1999.90;999.90;;;9.10;99.90;;;;;;5102644;28;20398;-77
2024/02/13 10:46:06;;;;;;;1999.90;999.90;;;9.10;99.90;;;;;;5103327;28;20054;-77
2024/02/13 10:48:44;;;;;;;1999.90;999.90;;;9.10;99.90;;;;;;5092742;28;20479;-79
2024/02/13 10:51:09;;;;;;;1999.90;999.90;;;9.10;99.90;;;;;;5087066;28;20164;-78
2024/02/13 10:53:36;;;;;;;1999.90;999.90;;;9.10;99.90;;;;;;5102412;28;20160;-77
2024/02/13 10:56:05;;;;;;;1999.90;999.90;;;9.10;99.90;;;;;;5114422;28;20024;-78
2024/02/13 10:58:31;;;;;;;1999.90;999.90;;;9.30;99.90;;;;;;5112385;28;20016;-77
2024/02/13 11:00:58;;;;;;;1999.90;999.90;;;9.30;99.90;;;;;;5116297;28;20034;-79
2024/02/13 11:03:24;;;;;;;1999.90;999.90;;;9.50;99.90;;;;;;5102103;28;20024;-76
2024/02/13 11:05:51;;;;;;;1999.90;999.90;;;9.60;99.90;;;;;;5081108;28;20550;-77
2024/02/13 11:08:18;;;;;;;1999.90;999.90;;;9.70;99.90;;;;;;5110771;28;20106;-78
2024/02/13 11:10:44;;;;;;;1999.90;999.90;;;9.70;99.90;;;;;;5116505;28;20609;-77
2024/02/13 11:13:10;;;;;;;1999.90;999.90;;;9.60;99.90;;;;;;5107461;28;20446;-77
2024/02/13 11:15:40;;;;;;;1999.90;999.90;;;9.60;99.90;;;;;;5110445;28;20462;-77
2024/02/13 11:18:12;;;;;;;1999.90;999.90;;;9.50;99.90;;;;;;5113813;28;20024;-79
2024/02/13 11:20:42;;;;;;;1999.90;999.90;;;9.60;99.90;;;;;;5100457;28;20089;-79
2024/02/13 11:23:18;;;;;;;1999.90;999.90;;;9.50;99.90;;;;;;5097564;28;20039;-78
2024/02/13 11:26:03;;;;;;;1999.90;999.90;;;9.60;99.90;;;;;;5092155;28;20573;-79
2024/02/13 11:28:33;;;;;;;1999.90;999.90;;;9.80;99.90;;;;;;5102651;28;20043;-78
2024/02/13 11:30:59;;;;;;;1999.90;999.90;;;10.10;99.90;;;;;;5084506;28;20032;-80
2024/02/13 11:33:24;;;;;;;1999.90;999.90;;;10.30;99.90;;;;;;5112149;27;20032;-79
2024/02/13 11:35:55;;;;;;;1999.90;999.90;;;10.50;99.90;;;;;;5125924;28;20032;-80
2024/02/13 11:38:23;;;;;;;1999.90;999.90;;;10.60;99.90;;;;;;5113515;28;20047;-79
2024/02/13 11:40:54;;;;;;;1999.90;999.90;;;10.70;99.90;;;;;;5091381;28;20474;-78
2024/02/13 11:43:27;;;;;;;1999.90;999.90;;;10.80;99.90;;;;;;5111046;28;20019;-79
2024/02/13 11:46:00;;;;;;;1999.90;999.90;;;10.40;99.90;;;;;;5113623;28;20106;-79
2024/02/13 11:48:25;;;;;;;;;;;10.30;99.90;;;;;;5103122;27;20023;-79
2024/02/13 11:50:55;;;;;;;1999.90;999.90;;;10.30;99.90;;;;;;5118574;27;19939;-78
2024/02/13 11:53:24;;;;;;;1999.90;999.90;;;10.50;99.90;;;;;;5091346;28;20024;-77
2024/02/13 11:55:54;;;;;;;1999.90;999.90;;;10.70;99.90;;;;;;5110130;27;20055;-80
2024/02/13 11:58:21;;;;;;;1999.90;999.90;;;10.60;99.90;;;;;;5089664;28;20030;-79
2024/02/13 12:01:04;;;;;;;1999.90;999.90;;;10.50;99.90;;;;;;5089727;28;20466;-80
2024/02/13 12:03:34;;;;;;;1999.90;999.90;;;10.30;99.90;;;;;;5102125;28;20023;-77
2024/02/13 12:06:05;;;;;;;1999.90;999.90;;;10.30;99.90;;;;;;5106722;28;20048;-76
2024/02/13 12:08:32;;;;;;;1999.90;999.90;;;10.20;99.90;;;;;;5109089;28;20036;-78